createdAt,value
2023-12-23T00:02:15.002Z,19.80
2023-12-23T00:04:47.076Z,20.80
2023-12-23T00:07:18.960Z,19.20
2023-12-23T00:09:50.890Z,20.30
2023-12-23T00:12:22.900Z,19.30
2023-12-23T00:14:54.742Z,19.00
2023-12-23T00:17:26.882Z,19.50
2023-12-23T00:19:59.170Z,20.30
2023-12-23T00:22:31.324Z,18.10
2023-12-23T00:25:04.043Z,19.10
2023-12-23T00:27:35.913Z,20.10
2023-12-23T00:30:09.976Z,20.40
2023-12-23T00:32:42.560Z,19.40
2023-12-23T00:35:14.851Z,18.90
2023-12-23T00:37:47.744Z,18.50
2023-12-23T00:40:19.958Z,18.90
2023-12-23T00:42:52.295Z,21.00
2023-12-23T00:45:24.093Z,20.60
2023-12-23T00:47:56.377Z,22.10
2023-12-23T00:50:28.701Z,23.20
2023-12-23T00:53:03.608Z,23.50
2023-12-23T00:55:35.512Z,23.90
2023-12-23T00:58:07.722Z,22.90
2023-12-23T01:00:40.328Z,25.10
2023-12-23T01:03:12.147Z,23.30
2023-12-23T01:05:44.165Z,21.90
2023-12-23T01:08:16.322Z,23.60
2023-12-23T01:10:48.326Z,22.50
2023-12-23T01:13:21.103Z,21.70
2023-12-23T01:15:52.979Z,22.30
2023-12-23T01:18:25.790Z,21.00
2023-12-23T01:20:57.775Z,20.80
2023-12-23T01:23:29.687Z,20.20
2023-12-23T01:26:01.557Z,20.60
2023-12-23T01:28:33.494Z,20.00
2023-12-23T01:31:05.752Z,20.80
2023-12-23T01:33:37.705Z,20.00
2023-12-23T01:36:10.329Z,18.10
2023-12-23T01:38:42.395Z,18.60
2023-12-23T01:41:14.388Z,17.20
2023-12-23T01:43:46.517Z,18.80
2023-12-23T01:46:18.638Z,16.50
2023-12-23T01:48:50.483Z,15.70
2023-12-23T01:51:23.821Z,17.90
2023-12-23T01:53:55.835Z,19.50
2023-12-23T01:56:27.691Z,17.20
2023-12-23T01:59:01.694Z,17.40
2023-12-23T02:01:34.642Z,17.80
2023-12-23T02:04:07.252Z,17.70
2023-12-23T02:06:39.098Z,17.90
2023-12-23T02:09:11.535Z,20.80
2023-12-23T02:11:45.306Z,21.90
2023-12-23T02:14:23.168Z,22.80
2023-12-23T02:16:55.081Z,25.40
2023-12-23T02:19:27.848Z,24.70
2023-12-23T02:22:01.297Z,23.30
2023-12-23T02:24:33.175Z,17.10
2023-12-23T02:27:10.134Z,15.50
2023-12-23T02:29:42.424Z,14.90
2023-12-23T02:32:14.413Z,14.00
2023-12-23T02:34:47.813Z,16.60
2023-12-23T02:37:19.678Z,14.80
2023-12-23T02:39:51.549Z,14.90
2023-12-23T02:42:23.341Z,14.40
2023-12-23T02:44:57.290Z,17.40
2023-12-23T02:47:29.360Z,16.80
2023-12-23T02:50:01.316Z,15.90
2023-12-23T02:52:33.905Z,17.50
2023-12-23T02:55:06.437Z,16.40
2023-12-23T02:57:38.350Z,16.80
2023-12-23T03:00:13.814Z,15.30
2023-12-23T03:02:45.721Z,15.10
2023-12-23T03:05:17.814Z,13.80
2023-12-23T03:07:50.251Z,13.00
2023-12-23T03:10:22.485Z,11.30
2023-12-23T03:12:54.359Z,12.30
2023-12-23T03:15:26.305Z,12.20
2023-12-23T03:17:58.309Z,13.40
2023-12-23T03:20:31.387Z,12.10
2023-12-23T03:23:03.316Z,13.60
2023-12-23T03:25:35.389Z,13.40
2023-12-23T03:28:07.971Z,13.10
2023-12-23T03:30:40.636Z,12.60
2023-12-23T03:33:17.231Z,12.80
2023-12-23T03:35:49.319Z,13.40
2023-12-23T03:38:22.313Z,12.50
2023-12-23T03:40:54.297Z,13.20
2023-12-23T03:43:26.213Z,11.90
2023-12-23T03:45:58.121Z,13.50
2023-12-23T03:48:30.498Z,12.20
2023-12-23T03:51:02.840Z,12.50
2023-12-23T03:53:34.716Z,12.10
2023-12-23T03:56:07.891Z,12.60
2023-12-23T03:58:39.869Z,13.70
2023-12-23T04:01:12.361Z,14.30
2023-12-23T04:03:45.021Z,14.50
2023-12-23T04:06:16.902Z,15.90
2023-12-23T04:08:48.865Z,15.20
2023-12-23T04:11:21.051Z,16.70
2023-12-23T04:13:52.956Z,14.20
2023-12-23T04:16:25.631Z,16.40
2023-12-23T04:18:57.600Z,16.60
2023-12-23T04:21:29.533Z,16.40
2023-12-23T04:24:01.424Z,15.70
2023-12-23T04:26:34.248Z,15.50
2023-12-23T04:29:06.345Z,16.70
2023-12-23T04:31:39.105Z,15.90
2023-12-23T04:34:11.887Z,15.80
2023-12-23T04:36:44.036Z,14.80
2023-12-23T04:39:18.192Z,14.90
2023-12-23T04:41:50.109Z,16.00
2023-12-23T04:44:22.979Z,16.70
2023-12-23T04:46:54.948Z,16.80
2023-12-23T04:49:26.905Z,16.20
2023-12-23T04:51:59.572Z,14.80
2023-12-23T04:54:32.740Z,14.10
2023-12-23T04:57:04.942Z,16.00
2023-12-23T04:59:37.362Z,16.40
2023-12-23T05:02:10.131Z,16.10
2023-12-23T05:04:44.122Z,16.30
2023-12-23T05:07:16.118Z,15.80
2023-12-23T05:09:48.144Z,16.50
2023-12-23T05:12:20.297Z,17.80
2023-12-23T05:14:52.594Z,16.80
2023-12-23T05:17:25.756Z,17.40
2023-12-23T05:19:58.008Z,16.10
2023-12-23T05:22:30.023Z,16.90
2023-12-23T05:25:02.921Z,16.90
2023-12-23T05:27:34.813Z,18.40
2023-12-23T05:30:08.736Z,16.60
2023-12-23T05:32:40.659Z,15.00
2023-12-23T05:35:12.901Z,16.00
2023-12-23T05:37:45.014Z,17.30
2023-12-23T05:40:17.224Z,16.70
2023-12-23T05:42:49.520Z,18.00
2023-12-23T05:45:21.864Z,18.40
2023-12-23T05:47:54.789Z,16.60
2023-12-23T05:50:27.081Z,15.70
2023-12-23T05:52:59.104Z,16.60
2023-12-23T05:55:31.100Z,17.70
2023-12-23T05:58:03.932Z,17.50
2023-12-23T06:00:36.008Z,18.20
2023-12-23T06:03:09.151Z,15.70
2023-12-23T06:05:41.073Z,16.70
2023-12-23T06:08:13.095Z,15.10
2023-12-23T06:10:50.968Z,14.90
2023-12-23T06:13:30.046Z,14.30
2023-12-23T06:16:06.336Z,14.60
2023-12-23T06:18:38.556Z,14.60
2023-12-23T06:21:11.547Z,16.70
2023-12-23T06:23:43.470Z,14.90
2023-12-23T06:26:16.135Z,16.10
2023-12-23T06:28:48.320Z,16.10
2023-12-23T06:31:20.180Z,15.40
2023-12-23T06:33:52.343Z,15.20
2023-12-23T06:36:24.373Z,15.50
2023-12-23T06:38:56.346Z,18.40
2023-12-23T06:41:28.392Z,17.00
2023-12-23T06:44:00.364Z,17.50
2023-12-23T06:46:32.324Z,17.00
2023-12-23T06:49:05.169Z,18.20
2023-12-23T06:51:37.581Z,16.70
2023-12-23T06:54:09.715Z,16.50
2023-12-23T06:56:41.606Z,17.00
2023-12-23T06:59:14.545Z,17.30
2023-12-23T07:01:46.610Z,17.20
2023-12-23T07:04:18.770Z,17.20
2023-12-23T07:06:51.525Z,16.90
2023-12-23T07:09:24.644Z,17.00
2023-12-23T07:11:56.797Z,18.60
2023-12-23T07:14:28.737Z,20.00
2023-12-23T07:17:00.913Z,18.40
2023-12-23T07:19:34.685Z,17.10
2023-12-23T07:22:08.045Z,17.70
2023-12-23T07:24:43.263Z,19.60
2023-12-23T07:27:15.595Z,17.80
2023-12-23T07:29:48.287Z,18.10
2023-12-23T07:32:20.309Z,17.70
2023-12-23T07:34:52.723Z,16.70
2023-12-23T07:37:24.792Z,14.70
2023-12-23T07:39:58.202Z,19.70
2023-12-23T07:42:30.138Z,18.70
2023-12-23T07:45:02.182Z,18.00
2023-12-23T07:47:34.196Z,15.50
2023-12-23T07:50:06.435Z,15.50
2023-12-23T07:52:38.364Z,14.20
2023-12-23T07:55:11.341Z,15.00
2023-12-23T07:57:44.086Z,15.00
2023-12-23T08:00:18.369Z,13.80
2023-12-23T08:02:51.260Z,13.10
2023-12-23T08:05:24.032Z,14.50
2023-12-23T08:07:56.583Z,15.30
2023-12-23T08:10:28.515Z,16.80
2023-12-23T08:13:01.279Z,14.40
2023-12-23T08:15:33.765Z,12.80
2023-12-23T08:18:06.385Z,12.50
2023-12-23T08:20:38.559Z,16.60
2023-12-23T08:23:10.655Z,14.70
2023-12-23T08:25:42.627Z,13.20
2023-12-23T08:28:14.658Z,13.50
2023-12-23T08:30:46.946Z,12.60
2023-12-23T08:33:19.067Z,11.20
2023-12-23T08:35:51.544Z,10.70
2023-12-23T08:38:23.899Z,11.20
2023-12-23T08:40:55.990Z,10.70
2023-12-23T08:43:28.031Z,10.80
2023-12-23T08:46:01.233Z,8.40
2023-12-23T08:48:34.038Z,8.80
2023-12-23T08:51:06.822Z,10.70
2023-12-23T08:53:39.372Z,10.10
2023-12-23T08:56:11.659Z,10.30
2023-12-23T08:58:43.591Z,10.20
2023-12-23T09:01:15.683Z,9.40
2023-12-23T09:03:48.028Z,9.50
2023-12-23T09:06:20.152Z,10.40
2023-12-23T09:08:55.683Z,9.40
2023-12-23T09:11:28.031Z,8.70
2023-12-23T09:14:00.337Z,10.20
2023-12-23T09:16:32.391Z,10.40
2023-12-23T09:19:04.920Z,10.00
2023-12-23T09:21:37.419Z,8.50
2023-12-23T09:24:10.026Z,8.30
2023-12-23T09:26:42.932Z,9.90
2023-12-23T09:29:14.928Z,9.50
2023-12-23T09:31:47.167Z,8.20
2023-12-23T09:34:22.272Z,8.40
2023-12-23T09:36:54.391Z,8.40
2023-12-23T09:39:26.949Z,9.20
2023-12-23T09:41:59.361Z,8.50
2023-12-23T09:44:31.414Z,8.90
2023-12-23T09:47:03.562Z,7.90
2023-12-23T09:49:38.469Z,8.20
2023-12-23T09:52:10.806Z,7.20
2023-12-23T09:54:45.570Z,6.80
2023-12-23T09:57:17.749Z,7.10
2023-12-23T09:59:53.613Z,7.60
2023-12-23T10:02:25.672Z,7.20
2023-12-23T10:04:57.689Z,6.80
2023-12-23T10:07:29.950Z,7.10
2023-12-23T10:10:01.856Z,8.20
2023-12-23T10:12:33.977Z,7.80
2023-12-23T10:15:06.923Z,7.80
2023-12-23T10:17:40.250Z,7.50
2023-12-23T10:20:14.741Z,8.00
2023-12-23T10:22:48.047Z,7.20
2023-12-23T10:25:20.242Z,6.90
2023-12-23T10:27:53.576Z,8.00
2023-12-23T10:30:26.171Z,7.50
2023-12-23T10:32:59.118Z,6.90
2023-12-23T10:35:31.686Z,6.50
2023-12-23T10:38:04.772Z,7.10
2023-12-23T10:40:36.915Z,7.70
2023-12-23T10:43:11.023Z,6.30
2023-12-23T10:45:43.899Z,6.80
2023-12-23T10:48:16.328Z,7.30
2023-12-23T10:50:49.798Z,7.40
2023-12-23T10:53:22.283Z,7.80
2023-12-23T10:55:54.657Z,8.50
2023-12-23T10:58:26.701Z,7.70
2023-12-23T11:00:58.642Z,7.90
2023-12-23T11:03:30.680Z,7.80
2023-12-23T11:06:02.802Z,8.00
2023-12-23T11:08:35.715Z,8.70
2023-12-23T11:11:07.829Z,8.10
2023-12-23T11:13:39.870Z,10.10
2023-12-23T11:16:13.790Z,9.60
2023-12-23T11:18:45.971Z,10.00
2023-12-23T11:21:21.244Z,9.10
2023-12-23T11:23:55.268Z,8.90
2023-12-23T11:26:52.979Z,8.80
2023-12-23T11:29:25.171Z,7.70
2023-12-23T11:32:08.077Z,7.50
2023-12-23T11:34:41.483Z,8.30
2023-12-23T11:37:13.713Z,7.50
2023-12-23T11:39:46.476Z,7.20
2023-12-23T11:42:18.489Z,7.80
2023-12-23T11:44:50.434Z,9.40
2023-12-23T11:47:22.712Z,8.50
2023-12-23T11:49:54.983Z,8.90
2023-12-23T11:52:27.282Z,8.00
2023-12-23T11:54:59.483Z,8.60
2023-12-23T11:57:31.660Z,8.30
2023-12-23T12:00:04.523Z,10.40
2023-12-23T12:02:44.473Z,8.40
2023-12-23T12:05:17.055Z,9.20
2023-12-23T12:07:48.965Z,9.00
2023-12-23T12:10:21.117Z,6.20
2023-12-23T12:12:53.498Z,7.40
2023-12-23T12:15:26.243Z,8.30
2023-12-23T12:17:58.534Z,7.10
2023-12-23T12:20:31.083Z,6.40
2023-12-23T12:23:04.953Z,6.80
2023-12-23T12:25:37.266Z,7.40
2023-12-23T12:28:09.768Z,7.50
2023-12-23T12:30:42.683Z,8.00
2023-12-23T12:33:14.798Z,8.20
2023-12-23T12:35:47.575Z,8.20
2023-12-23T12:38:23.706Z,9.30
2023-12-23T12:40:56.609Z,7.70
2023-12-23T12:43:37.491Z,7.90
2023-12-23T12:46:09.772Z,8.70
2023-12-23T12:48:42.098Z,7.00
2023-12-23T12:51:15.294Z,7.50
2023-12-23T12:53:48.710Z,7.90
2023-12-23T12:56:25.891Z,7.70
2023-12-23T12:58:59.235Z,8.70
2023-12-23T13:01:35.121Z,8.70
2023-12-23T13:04:07.578Z,9.00
2023-12-23T13:06:39.726Z,9.20
2023-12-23T13:09:12.185Z,10.60
2023-12-23T13:11:45.170Z,11.80
2023-12-23T13:14:17.445Z,12.90
2023-12-23T13:16:49.947Z,10.60
2023-12-23T13:19:22.091Z,12.70
2023-12-23T13:21:54.082Z,9.30
2023-12-23T13:24:26.525Z,9.70
2023-12-23T13:26:58.534Z,7.90
2023-12-23T13:29:31.575Z,8.60
2023-12-23T13:32:03.642Z,10.80
2023-12-23T13:34:36.422Z,9.60
2023-12-23T13:37:09.193Z,9.00
2023-12-23T13:39:41.560Z,6.60
2023-12-23T13:42:13.742Z,9.70
2023-12-23T13:44:46.235Z,7.20
2023-12-23T13:47:18.245Z,6.80
2023-12-23T13:49:50.467Z,7.60
2023-12-23T13:52:22.826Z,8.20
2023-12-23T13:54:54.729Z,8.40
2023-12-23T13:57:28.610Z,9.90
2023-12-23T14:00:00.502Z,6.70
2023-12-23T14:02:32.529Z,6.20
2023-12-23T14:05:04.717Z,6.70
2023-12-23T14:07:36.659Z,6.20
2023-12-23T14:10:10.959Z,5.30
2023-12-23T14:12:43.218Z,6.20
2023-12-23T14:15:15.232Z,5.00
2023-12-23T14:17:47.282Z,5.40
2023-12-23T14:20:20.587Z,4.90
2023-12-23T14:22:53.749Z,6.40
2023-12-23T14:25:25.945Z,7.80
2023-12-23T14:27:58.716Z,7.50
2023-12-23T14:30:31.270Z,8.00
2023-12-23T14:33:04.752Z,6.40
2023-12-23T14:35:36.930Z,8.00
2023-12-23T14:38:09.303Z,8.30
2023-12-23T14:40:41.725Z,7.20
2023-12-23T14:43:13.841Z,7.10
2023-12-23T14:45:46.358Z,7.70
